Time;durP1;ratioP1;P1;durP2;ratioP2;P2;SDS_P1;SDS_P2;PMS_P1;PMS_P2;Temp;Humidity;BMP_temperature;BMP_pressure;BME280_temperature;BME280_humidity;BME280_pressure;Samples;Min_cycle;Max_cycle;Signal;HPM_P1;HPM_P2
2021/07/04 00:01:41;;;;;;;1999.90;999.90;;;20.60;99.90;;;;;;5099110;28;20178;-81
2021/07/04 00:04:07;;;;;;;1999.90;999.90;;;20.50;99.90;;;;;;5099599;28;20167;-81
2021/07/04 00:06:32;;;;;;;1999.90;999.90;;;20.40;99.90;;;;;;5099464;28;20184;-82
2021/07/04 00:08:58;;;;;;;1999.90;999.90;;;20.40;99.90;;;;;;5100281;28;20633;-82
2021/07/04 00:11:24;;;;;;;1999.90;999.90;;;20.40;99.90;;;;;;5098907;28;20178;-82
2021/07/04 00:13:49;;;;;;;1999.90;999.90;;;20.50;99.90;;;;;;5098946;28;20176;-81
2021/07/04 00:16:16;;;;;;;1999.90;999.90;;;20.50;99.90;;;;;;5099782;28;20246;-82
2021/07/04 00:18:42;;;;;;;1999.90;999.90;;;20.50;99.90;;;;;;5098020;28;20574;-81
2021/07/04 00:21:09;;;;;;;1999.90;999.90;;;20.50;99.90;;;;;;5099050;28;20428;-82
2021/07/04 00:23:36;;;;;;;1999.90;999.90;;;20.20;99.90;;;;;;5081941;28;20164;-81
2021/07/04 00:26:04;;;;;;;1999.90;999.90;;;20.20;99.90;;;;;;5098392;28;20430;-82
2021/07/04 00:28:29;;;;;;;1999.90;999.90;;;20.30;99.90;;;;;;5081569;28;20412;-81
2021/07/04 00:30:55;;;;;;;1999.90;999.90;;;20.30;99.90;;;;;;5100867;28;20425;-83
2021/07/04 00:33:21;;;;;;;1999.90;999.90;;;20.40;99.90;;;;;;5101776;28;20239;-83
2021/07/04 00:35:47;;;;;;;1999.90;999.90;;;20.40;99.90;;;;;;5101702;28;20690;-83
2021/07/04 00:38:13;;;;;;;1999.90;999.90;;;20.40;99.90;;;;;;5102748;28;20211;-83
2021/07/04 00:40:40;;;;;;;1999.90;999.90;;;20.40;99.90;;;;;;5101720;28;20396;-83
2021/07/04 00:43:06;;;;;;;1999.90;999.90;;;20.40;99.90;;;;;;5083962;28;20454;-84
2021/07/04 00:45:33;;;;;;;1999.90;999.90;;;20.30;99.90;;;;;;5101671;28;20482;-83
2021/07/04 00:47:58;;;;;;;1999.90;999.90;;;20.30;99.90;;;;;;5083792;28;20443;-83
2021/07/04 00:50:28;;;;;;;1999.90;999.90;;;20.20;99.90;;;;;;5100351;28;20419;-83
2021/07/04 00:52:55;;;;;;;1999.90;999.90;;;20.20;99.90;;;;;;5101483;28;20811;-83
2021/07/04 00:55:21;;;;;;;1999.90;999.90;;;20.20;99.90;;;;;;5101565;28;20420;-83
2021/07/04 00:57:47;;;;;;;1999.90;999.90;;;20.20;99.90;;;;;;5100175;28;20445;-82
2021/07/04 01:00:22;;;;;;;1999.90;999.90;;;20.20;99.90;;;;;;5100914;28;20165;-83
2021/07/04 01:02:48;;;;;;;1999.90;999.90;;;20.20;99.90;;;;;;5082961;28;20412;-82
2021/07/04 01:05:16;;;;;;;1999.90;999.90;;;20.20;99.90;;;;;;5082774;28;20468;-83
2021/07/04 01:07:43;;;;;;;1999.90;999.90;;;20.30;99.90;;;;;;5101203;28;20426;-83
2021/07/04 01:10:10;;;;;;;1999.90;999.90;;;20.20;99.90;;;;;;5082521;28;20408;-83
2021/07/04 01:12:38;;;;;;;1999.90;999.90;;;20.20;99.90;;;;;;5101075;28;20406;-82
2021/07/04 01:15:06;;;;;;;1999.90;999.90;;;20.20;99.90;;;;;;5082280;28;20513;-82
2021/07/04 01:17:33;;;;;;;1999.90;999.90;;;20.20;99.90;;;;;;5082165;28;20444;-82
2021/07/04 01:19:59;;;;;;;1999.90;999.90;;;20.10;99.90;;;;;;5099744;28;20477;-82
2021/07/04 01:22:27;;;;;;;1999.90;999.90;;;20.10;99.90;;;;;;5082666;28;20405;-83
2021/07/04 01:24:54;;;;;;;1999.90;999.90;;;20.10;99.90;;;;;;5100963;28;20411;-82
2021/07/04 01:27:20;;;;;;;1999.90;999.90;;;20.00;99.90;;;;;;5100658;28;20496;-82
2021/07/04 01:29:46;;;;;;;1999.90;999.90;;;20.00;99.90;;;;;;5169065;22;20491;-82
2021/07/04 01:32:12;;;;;;;1999.90;999.90;;;20.00;99.90;;;;;;5097280;28;20403;-82
2021/07/04 01:34:37;;;;;;;1999.90;999.90;;;20.00;99.90;;;;;;5097346;28;20172;-82
2021/07/04 01:37:03;;;;;;;1999.90;999.90;;;20.00;99.90;;;;;;5096734;28;20408;-82
2021/07/04 01:39:29;;;;;;;1999.90;999.90;;;20.00;99.90;;;;;;5095616;28;20197;-82
2021/07/04 01:41:56;;;;;;;1999.90;999.90;;;20.00;99.90;;;;;;5097053;28;20402;-82
2021/07/04 01:44:22;;;;;;;1999.90;999.90;;;20.00;99.90;;;;;;5095892;28;20194;-83
2021/07/04 01:46:48;;;;;;;1999.90;999.90;;;20.00;99.90;;;;;;5096795;28;20947;-82
2021/07/04 01:49:14;;;;;;;1999.90;999.90;;;20.00;99.90;;;;;;5097469;28;20444;-83
2021/07/04 01:51:39;;;;;;;1999.90;999.90;;;20.00;99.90;;;;;;5097025;28;20165;-82
2021/07/04 01:54:05;;;;;;;1999.90;999.90;;;20.00;99.90;;;;;;5096982;28;20394;-82
2021/07/04 01:56:31;;;;;;;1999.90;999.90;;;19.90;99.90;;;;;;5097262;28;20183;-83
2021/07/04 01:58:56;;;;;;;1999.90;999.90;;;19.80;99.90;;;;;;5095959;28;20187;-82
2021/07/04 02:01:22;;;;;;;1999.90;999.90;;;19.80;99.90;;;;;;5096538;28;20167;-82
2021/07/04 02:03:48;;;;;;;1999.90;999.90;;;19.80;99.90;;;;;;5095308;28;20163;-82
2021/07/04 02:06:13;;;;;;;1999.90;999.90;;;19.80;99.90;;;;;;5096833;28;20531;-83
2021/07/04 02:08:39;;;;;;;1999.90;999.90;;;19.80;99.90;;;;;;5096466;28;20244;-83
2021/07/04 02:11:05;;;;;;;1999.90;999.90;;;19.70;99.90;;;;;;5096909;28;20164;-82
2021/07/04 02:13:31;;;;;;;1999.90;999.90;;;19.70;99.90;;;;;;5096933;28;20696;-83
2021/07/04 02:15:56;;;;;;;1999.90;999.90;;;19.70;99.90;;;;;;5096467;28;20425;-82
2021/07/04 02:18:22;;;;;;;1999.90;999.90;;;19.70;99.90;;;;;;5096393;28;20185;-83
2021/07/04 02:20:51;;;;;;;1999.90;999.90;;;19.70;99.90;;;;;;5078621;28;20163;-83
2021/07/04 02:23:17;;;;;;;1999.90;999.90;;;19.70;99.90;;;;;;5078721;28;20413;-83
2021/07/04 02:25:45;;;;;;;1999.90;999.90;;;19.70;99.90;;;;;;5095037;28;20421;-83
2021/07/04 02:28:12;;;;;;;1999.90;999.90;;;19.70;99.90;;;;;;5078536;28;20422;-83
2021/07/04 02:30:39;;;;;;;1999.90;999.90;;;19.70;99.90;;;;;;5096794;28;20442;-83
2021/07/04 02:33:07;;;;;;;1999.90;999.90;;;19.70;99.90;;;;;;5078197;28;20965;-83
2021/07/04 02:35:34;;;;;;;1999.90;999.90;;;19.70;99.90;;;;;;5096239;28;20840;-83
2021/07/04 02:38:00;;;;;;;1999.90;999.90;;;19.70;99.90;;;;;;5079130;28;20479;-83
2021/07/04 02:40:27;;;;;;;1999.90;999.90;;;19.70;99.90;;;;;;5095787;28;20951;-83
2021/07/04 02:42:53;;;;;;;1999.90;999.90;;;19.70;99.90;;;;;;5096308;28;20425;-83
2021/07/04 02:45:20;;;;;;;1999.90;999.90;;;19.60;99.90;;;;;;5078205;28;20426;-83
2021/07/04 02:47:46;;;;;;;1999.90;999.90;;;19.60;99.90;;;;;;5096106;28;20478;-83
2021/07/04 02:50:12;;;;;;;1999.90;999.90;;;19.60;99.90;;;;;;5095824;28;20801;-83
2021/07/04 02:52:38;;;;;;;1999.90;999.90;;;19.50;99.90;;;;;;5095768;28;20187;-83
2021/07/04 02:55:05;;;;;;;1999.90;999.90;;;19.60;99.90;;;;;;5095762;28;20459;-83
2021/07/04 02:57:31;;;;;;;1999.90;999.90;;;19.60;99.90;;;;;;5096442;28;20989;-83
2021/07/04 02:59:57;;;;;;;1999.90;999.90;;;19.60;99.90;;;;;;5096043;28;20393;-81
2021/07/04 03:02:23;;;;;;;1999.90;999.90;;;19.60;99.90;;;;;;5093158;28;20415;-81
2021/07/04 03:04:49;;;;;;;1999.90;999.90;;;19.60;99.90;;;;;;5094129;28;20164;-81
2021/07/04 03:07:15;;;;;;;1999.90;999.90;;;19.60;99.90;;;;;;5093822;28;20184;-81
2021/07/04 03:09:42;;;;;;;1999.90;999.90;;;19.50;99.90;;;;;;5094725;28;20784;-81
2021/07/04 03:12:08;;;;;;;1999.90;999.90;;;19.50;99.90;;;;;;5092744;28;20698;-82
2021/07/04 03:14:34;;;;;;;1999.90;999.90;;;19.50;99.90;;;;;;5094247;28;20764;-83
2021/07/04 03:17:00;;;;;;;1999.90;999.90;;;19.50;99.90;;;;;;5096348;28;20422;-83
2021/07/04 03:19:26;;;;;;;1999.90;999.90;;;19.50;99.90;;;;;;5096262;28;20528;-83
2021/07/04 03:21:52;;;;;;;1999.90;999.90;;;19.50;99.90;;;;;;5099896;28;20476;-83
2021/07/04 03:24:18;;;;;;;1999.90;999.90;;;19.50;99.90;;;;;;5100303;28;20462;-83
2021/07/04 03:26:44;;;;;;;1999.90;999.90;;;19.50;99.90;;;;;;5098595;28;20199;-83
2021/07/04 03:29:09;;;;;;;1999.90;999.90;;;19.50;99.90;;;;;;5099687;28;20209;-83
2021/07/04 03:31:35;;;;;;;1999.90;999.90;;;19.50;99.90;;;;;;5100057;28;20163;-83
2021/07/04 03:34:01;;;;;;;1999.90;999.90;;;19.50;99.90;;;;;;5100401;28;20215;-83
2021/07/04 03:36:26;;;;;;;1999.90;999.90;;;19.50;99.90;;;;;;5100088;28;20661;-83
2021/07/04 03:38:52;;;;;;;1999.90;999.90;;;19.50;99.90;;;;;;5099808;28;20219;-83
2021/07/04 03:41:18;;;;;;;1999.90;999.90;;;19.50;99.90;;;;;;5098709;28;20160;-83
2021/07/04 03:43:44;;;;;;;1999.90;999.90;;;19.60;99.90;;;;;;5100098;28;20167;-82
2021/07/04 03:46:09;;;;;;;1999.90;999.90;;;19.50;99.90;;;;;;5100350;28;20179;-83
2021/07/04 03:48:35;;;;;;;1999.90;999.90;;;19.50;99.90;;;;;;5100957;28;20233;-83
2021/07/04 03:51:01;;;;;;;1999.90;999.90;;;19.50;99.90;;;;;;5082442;28;20222;-83
2021/07/04 03:53:28;;;;;;;1999.90;999.90;;;19.50;99.90;;;;;;5081851;28;20164;-83
2021/07/04 03:55:54;;;;;;;1999.90;999.90;;;19.50;99.90;;;;;;5100121;28;20495;-83
2021/07/04 03:58:19;;;;;;;1999.90;999.90;;;19.50;99.90;;;;;;5100109;28;20443;-82
2021/07/04 04:00:45;;;;;;;1999.90;999.90;;;19.50;99.90;;;;;;5100288;28;20417;-83
2021/07/04 04:03:11;;;;;;;1999.90;999.90;;;19.50;99.90;;;;;;5100247;28;20240;-83
2021/07/04 04:05:37;;;;;;;1999.90;999.90;;;19.60;99.90;;;;;;5100366;28;20911;-83
2021/07/04 04:08:06;;;;;;;1999.90;999.90;;;19.60;99.90;;;;;;5099943;28;20175;-83
2021/07/04 04:10:31;;;;;;;1999.90;999.90;;;19.60;99.90;;;;;;5081307;28;20640;-83
2021/07/04 04:12:57;;;;;;;1999.90;999.90;;;19.60;99.90;;;;;;5098188;28;20398;-84
2021/07/04 04:15:23;;;;;;;1999.90;999.90;;;19.70;99.90;;;;;;5098365;28;20311;-86
2021/07/04 04:17:49;;;;;;;1999.90;999.90;;;19.70;99.90;;;;;;5098558;28;20183;-85
2021/07/04 04:20:15;;;;;;;1999.90;999.90;;;19.70;99.90;;;;;;5098604;28;20401;-84
2021/07/04 04:22:40;;;;;;;1999.90;999.90;;;19.70;99.90;;;;;;5099148;28;20225;-84
2021/07/04 04:25:07;;;;;;;1999.90;999.90;;;19.70;99.90;;;;;;5097264;28;20402;-83
2021/07/04 04:27:33;;;;;;;1999.90;999.90;;;19.70;99.90;;;;;;5099260;28;20159;-84
2021/07/04 04:29:58;;;;;;;1999.90;999.90;;;19.70;99.90;;;;;;5098937;28;20977;-83
2021/07/04 04:32:24;;;;;;;1999.90;999.90;;;19.70;99.90;;;;;;5097642;28;20162;-83
2021/07/04 04:34:50;;;;;;;1999.90;999.90;;;19.60;99.90;;;;;;5098716;28;20631;-83
2021/07/04 04:37:15;;;;;;;1999.90;999.90;;;19.60;99.90;;;;;;5098164;28;20175;-82
2021/07/04 04:39:42;;;;;;;1999.90;999.90;;;19.60;99.90;;;;;;5097948;28;20163;-81
2021/07/04 04:42:07;;;;;;;1999.90;999.90;;;19.60;99.90;;;;;;5098049;28;20167;-82
2021/07/04 04:44:37;;;;;;;1999.90;999.90;;;19.60;99.90;;;;;;5098229;28;20402;-82
2021/07/04 04:47:04;;;;;;;1999.90;999.90;;;19.70;99.90;;;;;;5097010;28;20192;-82
2021/07/04 04:49:29;;;;;;;1999.90;999.90;;;19.70;99.90;;;;;;5079967;28;20816;-81
2021/07/04 04:51:55;;;;;;;1999.90;999.90;;;19.70;99.90;;;;;;5098408;28;20415;-81
2021/07/04 04:54:21;;;;;;;1999.90;999.90;;;19.80;99.90;;;;;;5079509;28;20207;-81
2021/07/04 04:56:46;;;;;;;1999.90;999.90;;;19.80;99.90;;;;;;5097212;28;20183;-81
2021/07/04 04:59:12;;;;;;;1999.90;999.90;;;19.80;99.90;;;;;;5096835;28;20184;-81
2021/07/04 05:01:38;;;;;;;1999.90;999.90;;;19.80;99.90;;;;;;5097006;28;20167;-82
2021/07/04 05:04:04;;;;;;;1999.90;999.90;;;19.80;99.90;;;;;;5096406;28;20653;-82
2021/07/04 05:06:30;;;;;;;1999.90;999.90;;;19.70;99.90;;;;;;5097859;28;20180;-82
2021/07/04 05:08:55;;;;;;;1999.90;999.90;;;19.70;99.90;;;;;;5097402;28;20412;-82
2021/07/04 05:11:21;;;;;;;1999.90;999.90;;;19.70;99.90;;;;;;5079392;28;20169;-82
2021/07/04 05:13:47;;;;;;;1999.90;999.90;;;19.70;99.90;;;;;;5097643;28;20234;-82
2021/07/04 05:16:12;;;;;;;1999.90;999.90;;;19.80;99.90;;;;;;5096675;28;20234;-81
2021/07/04 05:18:38;;;;;;;1999.90;999.90;;;19.70;99.90;;;;;;5097814;28;20187;-81
2021/07/04 05:21:04;;;;;;;1999.90;999.90;;;19.70;99.90;;;;;;5097327;28;20222;-82
2021/07/04 05:23:29;;;;;;;1999.90;999.90;;;19.70;99.90;;;;;;5096625;28;20689;-82
2021/07/04 05:25:58;;;;;;;1999.90;999.90;;;19.70;99.90;;;;;;5095877;28;20179;-82
2021/07/04 05:28:30;;;;;;;1999.90;999.90;;;19.80;99.90;;;;;;5097064;28;20164;-82
2021/07/04 05:30:56;;;;;;;1999.90;999.90;;;19.80;99.90;;;;;;5078949;28;20802;-82
2021/07/04 05:33:23;;;;;;;1999.90;999.90;;;19.90;99.90;;;;;;5096729;28;20405;-82
2021/07/04 05:35:48;;;;;;;1999.90;999.90;;;20.00;99.90;;;;;;5078337;28;20433;-83
2021/07/04 05:38:19;;;;;;;1999.90;999.90;;;20.00;99.90;;;;;;5096941;28;20454;-83
2021/07/04 05:40:47;;;;;;;1999.90;999.90;;;20.10;99.90;;;;;;5096764;28;20219;-83
2021/07/04 05:43:13;;;;;;;1999.90;999.90;;;20.10;99.90;;;;;;5077663;28;20409;-82
2021/07/04 05:45:39;;;;;;;1999.90;999.90;;;20.10;99.90;;;;;;5078075;28;20559;-83
2021/07/04 05:48:05;;;;;;;1999.90;999.90;;;20.20;99.90;;;;;;5096287;28;20831;-83
2021/07/04 05:50:31;;;;;;;1999.90;999.90;;;20.10;99.90;;;;;;5096346;28;20245;-83
2021/07/04 05:52:57;;;;;;;1999.90;999.90;;;20.20;99.90;;;;;;5096127;28;20491;-83
2021/07/04 05:55:22;;;;;;;1999.90;999.90;;;20.30;99.90;;;;;;5096078;28;20246;-83
2021/07/04 05:57:48;;;;;;;1999.90;999.90;;;20.30;99.90;;;;;;5095014;28;20190;-83
2021/07/04 06:00:15;;;;;;;1999.90;999.90;;;20.40;99.90;;;;;;5095924;28;20164;-83
2021/07/04 06:02:41;;;;;;;1999.90;999.90;;;20.50;99.90;;;;;;5077352;28;20213;-82
2021/07/04 06:05:08;;;;;;;1999.90;999.90;;;20.50;99.90;;;;;;5095858;28;20415;-82
2021/07/04 06:07:34;;;;;;;1999.90;999.90;;;20.60;99.90;;;;;;5095812;28;20824;-82
2021/07/04 06:10:00;;;;;;;1999.90;999.90;;;20.60;99.90;;;;;;5077760;28;20406;-83
2021/07/04 06:12:26;;;;;;;1999.90;999.90;;;20.70;99.90;;;;;;5077977;28;20412;-83
2021/07/04 06:14:51;;;;;;;1999.90;999.90;;;20.70;99.90;;;;;;5095692;28;20405;-83
2021/07/04 06:17:17;;;;;;;1999.90;999.90;;;20.70;99.90;;;;;;5095601;28;20550;-83
2021/07/04 06:19:42;;;;;;;1999.90;999.90;;;20.80;99.90;;;;;;5095989;28;20756;-82
2021/07/04 06:22:08;;;;;;;1999.90;999.90;;;21.00;99.90;;;;;;5095774;28;20165;-83
2021/07/04 06:24:34;;;;;;;1999.90;999.90;;;21.00;99.90;;;;;;5094449;28;20201;-82
2021/07/04 06:26:59;;;;;;;1999.90;999.90;;;21.10;99.90;;;;;;5095422;28;20182;-82
2021/07/04 06:29:25;;;;;;;1999.90;999.90;;;21.20;99.90;;;;;;5095513;28;20182;-82
2021/07/04 06:31:50;;;;;;;1999.90;999.90;;;21.20;99.90;;;;;;5095595;28;20155;-83
2021/07/04 06:34:16;;;;;;;1999.90;999.90;;;21.20;99.90;;;;;;5095990;28;20164;-82
2021/07/04 06:36:42;;;;;;;1999.90;999.90;;;21.40;99.90;;;;;;5095642;28;20290;-83
2021/07/04 06:39:07;;;;;;;1999.90;999.90;;;21.40;99.90;;;;;;5095551;28;20205;-82
2021/07/04 06:41:33;;;;;;;1999.90;999.90;;;21.50;99.90;;;;;;5095646;28;20172;-82
2021/07/04 06:44:00;;;;;;;1999.90;999.90;;;21.60;99.90;;;;;;5095004;28;20226;-82
2021/07/04 06:46:26;;;;;;;1999.90;999.90;;;21.70;99.90;;;;;;5095228;28;20250;-82
2021/07/04 06:48:52;;;;;;;1999.90;999.90;;;21.70;99.90;;;;;;5097096;28;20469;-83
2021/07/04 06:51:18;;;;;;;1999.90;999.90;;;21.80;99.90;;;;;;5097363;28;20542;-83
2021/07/04 06:53:43;;;;;;;1999.90;999.90;;;21.90;99.90;;;;;;5097369;28;20167;-82
2021/07/04 06:56:09;;;;;;;1999.90;999.90;;;22.00;99.90;;;;;;5101936;28;20176;-82
2021/07/04 06:58:35;;;;;;;1999.90;999.90;;;22.10;99.90;;;;;;5102620;28;20232;-82
2021/07/04 07:01:00;;;;;;;1999.90;999.90;;;22.10;99.90;;;;;;5102351;28;20160;-82
2021/07/04 07:03:26;;;;;;;1999.90;999.90;;;22.30;99.90;;;;;;5104029;28;20163;-82
2021/07/04 07:05:52;;;;;;;1999.90;999.90;;;22.40;99.90;;;;;;5103690;28;20183;-82
2021/07/04 07:08:17;;;;;;;1999.90;999.90;;;22.40;99.90;;;;;;5103248;28;20179;-82
2021/07/04 07:10:43;;;;;;;1999.90;999.90;;;22.40;99.90;;;;;;5104305;28;20203;-82
2021/07/04 07:13:09;;;;;;;1999.90;999.90;;;22.30;99.90;;;;;;5104250;28;20641;-82
2021/07/04 07:15:34;;;;;;;1999.90;999.90;;;22.40;99.90;;;;;;5104542;28;20187;-82
2021/07/04 07:18:00;;;;;;;1999.90;999.90;;;22.40;99.90;;;;;;5104715;28;20274;-82
2021/07/04 07:20:26;;;;;;;1999.90;999.90;;;22.50;99.90;;;;;;5104056;28;20167;-82
2021/07/04 07:22:52;;;;;;;1999.90;999.90;;;22.60;99.90;;;;;;5086493;28;20175;-82
2021/07/04 07:25:18;;;;;;;1999.90;999.90;;;22.70;99.90;;;;;;5102854;28;20312;-82
2021/07/04 07:27:43;;;;;;;1999.90;999.90;;;22.80;99.90;;;;;;5104900;28;20425;-82
2021/07/04 07:40:19;;;;;;;1999.90;999.90;;;22.80;99.90;;;;;;5014717;28;20393;-85
2021/07/04 07:42:44;;;;;;;1999.90;999.90;;;22.90;99.90;;;;;;5066754;28;20765;-84
2021/07/04 07:45:10;;;;;;;1999.90;999.90;;;22.90;99.90;;;;;;5097642;28;20438;-85
2021/07/04 07:47:36;;;;;;;1999.90;999.90;;;22.90;99.90;;;;;;5098188;28;20151;-85
2021/07/04 07:50:05;;;;;;;1999.90;999.90;;;23.00;99.90;;;;;;5097344;28;20179;-85
2021/07/04 07:52:30;;;;;;;1999.90;999.90;;;22.90;99.90;;;;;;5096613;28;20413;-85
2021/07/04 07:54:56;;;;;;;1999.90;999.90;;;22.80;99.90;;;;;;5077962;28;20402;-84
2021/07/04 07:57:22;;;;;;;1999.90;999.90;;;22.70;99.90;;;;;;5097524;28;20634;-84
2021/07/04 07:59:49;;;;;;;1999.90;999.90;;;22.60;99.90;;;;;;5078647;28;20772;-85
2021/07/04 08:02:16;;;;;;;1999.90;999.90;;;22.50;99.90;;;;;;5078988;28;20420;-85
2021/07/04 08:04:44;;;;;;;1999.90;999.90;;;22.50;99.90;;;;;;5096371;28;20455;-84
2021/07/04 08:07:10;;;;;;;1999.90;999.90;;;22.60;99.90;;;;;;5095198;28;20429;-85
2021/07/04 08:09:39;;;;;;;1999.90;999.90;;;22.70;99.90;;;;;;5096822;28;20405;-84
2021/07/04 08:12:05;;;;;;;1999.90;999.90;;;22.90;99.90;;;;;;5078544;28;20193;-84
2021/07/04 08:14:31;;;;;;;1999.90;999.90;;;23.20;99.90;;;;;;5096665;28;20420;-85
2021/07/04 08:16:56;;;;;;;1999.90;999.90;;;23.40;99.90;;;;;;5096113;28;20433;-85
2021/07/04 08:19:22;;;;;;;1999.90;999.90;;;23.30;99.90;;;;;;5096460;28;20248;-85
2021/07/04 08:21:48;;;;;;;1999.90;999.90;;;23.40;99.90;;;;;;5096529;28;20168;-85
2021/07/04 08:24:13;;;;;;;1999.90;999.90;;;23.40;99.90;;;;;;5097094;28;20246;-85
2021/07/04 08:26:39;;;;;;;1999.90;999.90;;;23.30;99.90;;;;;;5078939;28;20604;-85
2021/07/04 08:29:05;;;;;;;1999.90;999.90;;;23.40;99.90;;;;;;5096379;28;20186;-85
2021/07/04 08:31:38;;;;;;;1999.90;999.90;;;23.40;99.90;;;;;;5097063;28;20162;-85
2021/07/04 08:34:09;;;;;;;1999.90;999.90;;;23.40;99.90;;;;;;5096246;28;20209;-85
2021/07/04 08:36:35;;;;;;;1999.90;999.90;;;23.60;99.90;;;;;;5095881;28;20861;-85
2021/07/04 08:39:04;;;;;;;1999.90;999.90;;;23.60;99.90;;;;;;5078354;28;20536;-84
2021/07/04 08:41:30;;;;;;;1999.90;999.90;;;23.70;99.90;;;;;;5096322;28;20224;-85
2021/07/04 08:43:55;;;;;;;1999.90;999.90;;;23.60;99.90;;;;;;5097272;28;20402;-85
2021/07/04 08:46:21;;;;;;;1999.90;999.90;;;23.50;99.90;;;;;;5097368;28;20602;-85
2021/07/04 08:48:47;;;;;;;1999.90;999.90;;;23.50;99.90;;;;;;5098924;28;20174;-85
2021/07/04 08:51:13;;;;;;;1999.90;999.90;;;23.60;99.90;;;;;;5078869;28;20456;-85
2021/07/04 08:53:40;;;;;;;1999.90;999.90;;;23.60;99.90;;;;;;5081207;28;20199;-85
2021/07/04 08:56:06;;;;;;;1999.90;999.90;;;23.70;99.90;;;;;;5098733;28;20371;-85
2021/07/04 08:58:32;;;;;;;1999.90;999.90;;;23.80;99.90;;;;;;5078432;28;20464;-85
2021/07/04 09:01:07;;;;;;;1999.90;999.90;;;23.80;99.90;;;;;;5095837;28;20398;-85
2021/07/04 09:03:33;;;;;;;1999.90;999.90;;;24.00;99.90;;;;;;5077048;28;20409;-85
2021/07/04 09:05:59;;;;;;;1999.90;999.90;;;24.00;99.90;;;;;;5095820;28;20433;-85
2021/07/04 09:08:25;;;;;;;1999.90;999.90;;;23.90;99.90;;;;;;5095010;28;20250;-84
2021/07/04 09:11:13;;;;;;;1999.90;999.90;;;23.70;99.90;;;;;;5095507;28;20179;-85
2021/07/04 09:13:40;;;;;;;1999.90;999.90;;;23.60;99.90;;;;;;5093496;28;20172;-85
2021/07/04 09:16:12;;;;;;;1999.90;999.90;;;23.50;99.90;;;;;;5093486;28;20807;-85
2021/07/04 09:18:38;;;;;;;1999.90;999.90;;;23.50;99.90;;;;;;5094960;28;20482;-85
2021/07/04 09:21:24;;;;;;;1999.90;999.90;;;23.50;99.90;;;;;;5094853;28;20410;-85
2021/07/04 09:23:54;;;;;;;1999.90;999.90;;;23.50;99.90;;;;;;5094736;28;20513;-85
2021/07/04 09:26:55;;;;;;;1999.90;999.90;;;23.70;99.90;;;;;;5094278;28;20790;-85
2021/07/04 09:29:48;;;;;;;1999.90;999.90;;;23.70;99.90;;;;;;5032086;28;20431;-85
2021/07/04 09:32:25;;;;;;;1999.90;999.90;;;23.70;99.90;;;;;;5093013;28;20422;-84
2021/07/04 09:35:10;;;;;;;1999.90;999.90;;;23.70;99.90;;;;;;5094569;28;20462;-84
2021/07/04 09:37:48;;;;;;;1999.90;999.90;;;23.80;99.90;;;;;;5076965;28;20435;-84
2021/07/04 09:40:16;;;;;;;1999.90;999.90;;;23.80;99.90;;;;;;5094390;28;20404;-84
2021/07/04 09:43:07;;;;;;;1999.90;999.90;;;24.00;99.90;;;;;;5094174;28;20401;-82
2021/07/04 09:46:06;;;;;;;1999.90;999.90;;;24.00;99.90;;;;;;5131353;22;20986;-81
2021/07/04 09:49:21;;;;;;;1999.90;999.90;;;24.00;99.90;;;;;;5098869;28;20382;-81
2021/07/04 09:52:13;;;;;;;1999.90;999.90;;;23.80;99.90;;;;;;5026344;28;20409;-81
2021/07/04 09:55:08;;;;;;;1999.90;999.90;;;23.80;99.90;;;;;;5099392;28;20387;-82
2021/07/04 09:58:33;;;;;;;1999.90;999.90;;;23.70;99.90;;;;;;5078694;28;20399;-82
2021/07/04 10:01:10;;;;;;;1999.90;999.90;;;23.80;99.90;;;;;;5016834;28;20403;-81
2021/07/04 10:03:43;;;;;;;1999.90;999.90;;;23.80;99.90;;;;;;5033744;28;20398;-81
2021/07/04 10:07:01;;;;;;;1999.90;999.90;;;23.80;99.90;;;;;;5078749;28;20411;-81
2021/07/04 10:12:37;;;;;;;1999.90;999.90;;;23.90;99.90;;;;;;5070324;28;20407;-81
2021/07/04 10:18:56;;;;;;;1999.90;999.90;;;23.60;99.90;;;;;;5077719;28;20444;-81
2021/07/04 10:22:09;;;;;;;1999.90;999.90;;;23.30;99.90;;;;;;5058934;28;20414;-81
2021/07/04 10:32:07;;;;;;;1999.90;999.90;;;23.40;99.90;;;;;;5069855;28;20747;-81
2021/07/04 10:35:36;;;;;;;1999.90;999.90;;;23.40;99.90;;;;;;4956990;29;20419;-81
2021/07/04 10:38:47;;;;;;;1999.90;999.90;;;23.50;99.90;;;;;;5077184;28;20449;-81
2021/07/04 10:41:54;;;;;;;1999.90;999.90;;;23.50;99.90;;;;;;5017160;28;20452;-81
2021/07/04 10:47:45;;;;;;;1999.90;999.90;;;23.70;99.90;;;;;;5105834;22;20477;-81
2021/07/04 10:50:42;;;;;;;1999.90;999.90;;;23.60;99.90;;;;;;5097726;28;20458;-81
2021/07/04 10:53:39;;;;;;;1999.90;999.90;;;23.50;99.90;;;;;;5097378;28;20404;-81
2021/07/04 11:03:45;;;;;;;1999.90;999.90;;;23.80;99.90;;;;;;5075516;28;20494;-81
2021/07/04 11:07:13;;;;;;;1999.90;999.90;;;24.00;99.90;;;;;;5071238;28;20462;-81
2021/07/04 11:13:29;;;;;;;1999.90;999.90;;;24.80;99.90;;;;;;5001498;28;20433;-80
2021/07/04 11:17:02;;;;;;;1999.90;999.90;;;25.60;99.90;;;;;;5003240;28;20463;-80
2021/07/04 11:19:47;;;;;;;1999.90;999.90;;;25.90;99.90;;;;;;4998393;28;20835;-81
2021/07/04 11:22:32;;;;;;;1999.90;999.90;;;25.80;99.90;;;;;;5043398;28;20450;-81
2021/07/04 11:25:24;;;;;;;1999.90;999.90;;;25.80;99.90;;;;;;5075929;28;20452;-80
2021/07/04 11:31:46;;;;;;;1999.90;999.90;;;26.00;99.90;;;;;;5015311;28;20415;-81
2021/07/04 11:34:44;;;;;;;1999.90;999.90;;;25.90;99.90;;;;;;5015628;28;20437;-81
2021/07/04 11:37:44;;;;;;;1999.90;999.90;;;26.10;99.90;;;;;;5103542;22;20488;-81
2021/07/04 11:40:54;;;;;;;1999.90;999.90;;;26.20;99.90;;;;;;5093952;28;20425;-81
2021/07/04 11:43:44;;;;;;;1999.90;999.90;;;26.50;99.90;;;;;;5082974;28;20405;-81
2021/07/04 11:46:46;;;;;;;1999.90;999.90;;;26.70;99.90;;;;;;5082536;28;21044;-81
2021/07/04 11:49:53;;;;;;;1999.90;999.90;;;26.70;99.90;;;;;;5093473;28;20404;-81
2021/07/04 11:56:26;;;;;;;1999.90;999.90;;;27.40;99.90;;;;;;5089979;28;20417;-81
2021/07/04 11:59:40;;;;;;;1999.90;999.90;;;27.40;99.90;;;;;;5081999;28;20552;-81
2021/07/04 12:02:40;;;;;;;1999.90;999.90;;;27.50;99.90;;;;;;5100869;28;20833;-81
2021/07/04 12:05:15;;;;;;;1999.90;999.90;;;27.50;99.90;;;;;;5100654;28;20454;-80
2021/07/04 12:08:14;;;;;;;1999.90;999.90;;;27.20;99.90;;;;;;5100560;28;20408;-81
2021/07/04 12:11:12;;;;;;;1999.90;999.90;;;27.10;99.90;;;;;;5100353;28;20428;-81
2021/07/04 12:14:01;;;;;;;1999.90;999.90;;;26.60;99.90;;;;;;5100857;28;20397;-81
2021/07/04 12:16:44;;;;;;;1999.90;999.90;;;26.00;99.90;;;;;;5100101;28;20440;-81
2021/07/04 12:19:43;;;;;;;1999.90;999.90;;;25.20;99.90;;;;;;5098655;28;20445;-81
2021/07/04 12:22:49;;;;;;;1999.90;999.90;;;25.10;99.90;;;;;;5082486;28;20404;-81
2021/07/04 12:25:54;;;;;;;1999.90;999.90;;;24.90;99.90;;;;;;5098445;28;20405;-81
2021/07/04 12:28:52;;;;;;;;;;;;;;;;;;;;;
2021/07/04 12:31:24;;;;;;;1999.90;999.90;;;24.50;99.90;;;;;;5100628;28;20489;-81
2021/07/04 12:34:20;;;;;;;1999.90;999.90;;;24.50;99.90;;;;;;5099980;28;20815;-81
2021/07/04 12:36:56;;;;;;;1999.90;999.90;;;24.10;99.90;;;;;;5079505;28;20849;-82
2021/07/04 12:39:45;;;;;;;1999.90;999.90;;;24.00;99.90;;;;;;5099773;28;20447;-81
2021/07/04 12:42:44;;;;;;;1999.90;999.90;;;24.10;99.90;;;;;;5100228;28;20393;-81
2021/07/04 12:45:48;;;;;;;1999.90;999.90;;;24.00;99.90;;;;;;5064031;28;20435;-81
2021/07/04 12:48:57;;;;;;;1999.90;999.90;;;24.20;99.90;;;;;;5099438;28;20430;-81
2021/07/04 12:51:38;;;;;;;1999.90;999.90;;;24.10;99.90;;;;;;5087703;28;20398;-81
2021/07/04 13:04:47;;;;;;;1999.90;999.90;;;22.90;99.90;;;;;;5085346;28;20424;-82
2021/07/04 13:07:30;;;;;;;1999.90;999.90;;;22.60;99.90;;;;;;5100722;28;20432;-83
2021/07/04 13:09:56;;;;;;;1999.90;999.90;;;22.40;99.90;;;;;;5101026;28;20435;-82
2021/07/04 13:12:22;;;;;;;1999.90;999.90;;;22.10;99.90;;;;;;5098614;28;20409;-81
2021/07/04 13:14:56;;;;;;;1999.90;999.90;;;21.70;99.90;;;;;;5099940;28;20246;-82
2021/07/04 13:17:27;;;;;;;1999.90;999.90;;;21.30;99.90;;;;;;5101036;28;20400;-82
2021/07/04 13:19:59;;;;;;;1999.90;999.90;;;21.00;99.90;;;;;;5100892;28;20436;-82
2021/07/04 13:22:34;;;;;;;1999.90;999.90;;;20.70;99.90;;;;;;5100231;28;20390;-82